Reydon, OK (73660)

7:15 PM CST on February 12, 2016 (GMT -0600)
J&C 1020 Rd. | | Change Station
CLOSE
Current Station
Personal Weather Station
Location: Cheyenne, OK
Elevation: 2293 ft
Nearby Weather Stations

Elev 2293 ft 35.54 °N, 99.68 °W | Updated 9 minutes ago

Clear
Clear
46.9 °F
Feels Like 43 °F
N
7.2
Wind Variable Wind from WNW
Gusts 7.4 mph

Today
High -- | Low -- °F
--% Chance of Precip.
Yesterday
High -- | Low -- °F
Precip. -- in
Pressure 30.34 in
Visibility 10.0 miles
Clouds Clear
Windchill 43 °F
Dew Point 38 °F
Humidity 71%
Rainfall 0.00 in
Snow Depth Not available.
7:30 AM 6:18 PM
Waxing Crescent, 25% visible
METAR KHHF 130055Z AUTO 10008KT 10SM CLR 11/01 A3034 RMK AO2 T01050007
Pressure 30.34 in
Visibility 10.0 miles
Clouds Clear
Windchill 43 °F
Dew Point 38 °F
Humidity 71%
Rainfall 0.00 in
Snow Depth Not available.
7:30 AM 6:18 PM
Waxing Crescent, 25% visible
METAR KHHF 130055Z AUTO 10008KT 10SM CLR 11/01 A3034 RMK AO2 T01050007

10-Day Weather Forecast

Almanac

Astronomy

Feb. 12, 2016 Rise Set
Actual Time
Civil Twilight
Nautical Twilight
Astronomical Twilight
Moon
Length of Visible Light
Length of Day
Tomorrow will be .
, % of the Moon is Illuminated

Today's Extremes

State Highs State Lows

Community

WunderPhotos

Upload Photos

1,892,455 photos uploaded!

WunderBlog® & News

Nearby

Air Quality

  Air Quality AQ Index Pollutant
Not available.

Snow Depth

Station Depth Elevation

Earthquake Activity

City Distance Mag. Time & Date
Minimum magnitude displayed is 2.5.

Coastal Water Temperatures

Place Temperature

Stations

Nearby Weather Stations

Station Location Temp. Windchill Dew Point Humidity Wind Precip. Elev Updated Type
                   

Watches & Warnings

There are currently no watches in effect.